sensor_id;sensor_type;location;lat;lon;timestamp;P1;durP1;ratioP1;P2;durP2;ratioP2
10851;SDS011;5479;52.046;6.314;2023-03-25T00:02:01;4.23;;;1.90;;
10851;SDS011;5479;52.046;6.314;2023-03-25T00:04:30;5.47;;;2.10;;
10851;SDS011;5479;52.046;6.314;2023-03-25T00:07:01;6.20;;;1.93;;
10851;SDS011;5479;52.046;6.314;2023-03-25T00:09:30;4.97;;;1.80;;
10851;SDS011;5479;52.046;6.314;2023-03-25T00:11:58;4.53;;;2.07;;
10851;SDS011;5479;52.046;6.314;2023-03-25T00:14:27;6.90;;;2.17;;
10851;SDS011;5479;52.046;6.314;2023-03-25T00:16:58;5.90;;;2.03;;
10851;SDS011;5479;52.046;6.314;2023-03-25T00:19:26;6.63;;;2.00;;
10851;SDS011;5479;52.046;6.314;2023-03-25T00:21:55;7.87;;;2.23;;
10851;SDS011;5479;52.046;6.314;2023-03-25T00:24:24;4.30;;;1.93;;
10851;SDS011;5479;52.046;6.314;2023-03-25T00:26:52;4.37;;;1.90;;
10851;SDS011;5479;52.046;6.314;2023-03-25T00:29:20;7.23;;;2.20;;
10851;SDS011;5479;52.046;6.314;2023-03-25T00:31:48;5.60;;;2.20;;
10851;SDS011;5479;52.046;6.314;2023-03-25T00:34:16;5.80;;;2.00;;
10851;SDS011;5479;52.046;6.314;2023-03-25T00:36:45;7.37;;;2.20;;
10851;SDS011;5479;52.046;6.314;2023-03-25T00:39:13;5.03;;;1.73;;
10851;SDS011;5479;52.046;6.314;2023-03-25T00:41:42;7.23;;;2.30;;
10851;SDS011;5479;52.046;6.314;2023-03-25T00:44:10;7.20;;;2.50;;
10851;SDS011;5479;52.046;6.314;2023-03-25T00:46:40;5.33;;;1.93;;
10851;SDS011;5479;52.046;6.314;2023-03-25T00:49:08;5.27;;;2.07;;
10851;SDS011;5479;52.046;6.314;2023-03-25T00:51:36;4.13;;;2.20;;
10851;SDS011;5479;52.046;6.314;2023-03-25T00:54:04;5.57;;;2.10;;
10851;SDS011;5479;52.046;6.314;2023-03-25T00:56:32;4.97;;;1.90;;
10851;SDS011;5479;52.046;6.314;2023-03-25T00:59:02;5.07;;;2.27;;
10851;SDS011;5479;52.046;6.314;2023-03-25T01:01:29;5.87;;;2.20;;
10851;SDS011;5479;52.046;6.314;2023-03-25T01:03:57;7.73;;;2.30;;
10851;SDS011;5479;52.046;6.314;2023-03-25T01:06:27;5.20;;;2.13;;
10851;SDS011;5479;52.046;6.314;2023-03-25T01:09:05;8.03;;;2.37;;
10851;SDS011;5479;52.046;6.314;2023-03-25T01:11:35;8.80;;;3.37;;
10851;SDS011;5479;52.046;6.314;2023-03-25T01:14:06;8.00;;;2.60;;
10851;SDS011;5479;52.046;6.314;2023-03-25T01:16:37;5.93;;;2.10;;
10851;SDS011;5479;52.046;6.314;2023-03-25T01:19:05;7.30;;;2.43;;
10851;SDS011;5479;52.046;6.314;2023-03-25T01:21:33;7.43;;;2.37;;
10851;SDS011;5479;52.046;6.314;2023-03-25T01:24:02;5.97;;;2.20;;
10851;SDS011;5479;52.046;6.314;2023-03-25T01:26:31;9.43;;;2.50;;
10851;SDS011;5479;52.046;6.314;2023-03-25T01:28:59;6.47;;;2.30;;
10851;SDS011;5479;52.046;6.314;2023-03-25T01:31:29;6.30;;;2.20;;
10851;SDS011;5479;52.046;6.314;2023-03-25T01:33:57;7.97;;;2.53;;
10851;SDS011;5479;52.046;6.314;2023-03-25T01:36:25;7.57;;;2.30;;
10851;SDS011;5479;52.046;6.314;2023-03-25T01:38:54;6.87;;;2.27;;
10851;SDS011;5479;52.046;6.314;2023-03-25T01:41:23;7.33;;;2.67;;
10851;SDS011;5479;52.046;6.314;2023-03-25T01:44:00;7.03;;;2.50;;
10851;SDS011;5479;52.046;6.314;2023-03-25T01:46:30;9.03;;;2.30;;
10851;SDS011;5479;52.046;6.314;2023-03-25T01:49:00;7.07;;;2.10;;
10851;SDS011;5479;52.046;6.314;2023-03-25T01:51:31;5.23;;;2.10;;
10851;SDS011;5479;52.046;6.314;2023-03-25T01:54:03;5.73;;;2.20;;
10851;SDS011;5479;52.046;6.314;2023-03-25T01:56:32;8.67;;;2.07;;
10851;SDS011;5479;52.046;6.314;2023-03-25T01:59:03;8.30;;;2.37;;
10851;SDS011;5479;52.046;6.314;2023-03-25T02:01:34;8.47;;;2.50;;
10851;SDS011;5479;52.046;6.314;2023-03-25T02:04:04;7.73;;;2.43;;
10851;SDS011;5479;52.046;6.314;2023-03-25T02:06:39;7.83;;;2.40;;
10851;SDS011;5479;52.046;6.314;2023-03-25T02:09:10;8.07;;;2.43;;
10851;SDS011;5479;52.046;6.314;2023-03-25T02:11:39;7.53;;;2.47;;
10851;SDS011;5479;52.046;6.314;2023-03-25T02:14:08;6.00;;;2.13;;
10851;SDS011;5479;52.046;6.314;2023-03-25T02:16:43;7.40;;;2.40;;
10851;SDS011;5479;52.046;6.314;2023-03-25T02:19:31;5.43;;;2.10;;
10851;SDS011;5479;52.046;6.314;2023-03-25T02:22:24;7.43;;;2.50;;
10851;SDS011;5479;52.046;6.314;2023-03-25T02:25:22;5.90;;;2.20;;
10851;SDS011;5479;52.046;6.314;2023-03-25T02:28:02;6.93;;;2.30;;
10851;SDS011;5479;52.046;6.314;2023-03-25T02:30:45;7.90;;;2.70;;
10851;SDS011;5479;52.046;6.314;2023-03-25T02:33:37;8.33;;;2.47;;
10851;SDS011;5479;52.046;6.314;2023-03-25T02:36:31;8.07;;;2.47;;
10851;SDS011;5479;52.046;6.314;2023-03-25T02:39:23;9.10;;;2.80;;
10851;SDS011;5479;52.046;6.314;2023-03-25T02:41:59;7.20;;;2.50;;
10851;SDS011;5479;52.046;6.314;2023-03-25T02:44:34;8.50;;;2.57;;
10851;SDS011;5479;52.046;6.314;2023-03-25T02:47:07;7.80;;;2.77;;
10851;SDS011;5479;52.046;6.314;2023-03-25T02:49:41;7.10;;;2.50;;
10851;SDS011;5479;52.046;6.314;2023-03-25T02:52:13;8.07;;;2.33;;
10851;SDS011;5479;52.046;6.314;2023-03-25T02:54:45;6.20;;;2.37;;
10851;SDS011;5479;52.046;6.314;2023-03-25T02:57:17;6.30;;;2.40;;
10851;SDS011;5479;52.046;6.314;2023-03-25T02:59:47;8.27;;;2.70;;
10851;SDS011;5479;52.046;6.314;2023-03-25T03:02:19;6.63;;;2.63;;
10851;SDS011;5479;52.046;6.314;2023-03-25T03:04:50;5.63;;;2.43;;
10851;SDS011;5479;52.046;6.314;2023-03-25T03:07:21;5.93;;;2.47;;
10851;SDS011;5479;52.046;6.314;2023-03-25T03:09:54;7.07;;;2.33;;
10851;SDS011;5479;52.046;6.314;2023-03-25T03:12:35;5.30;;;2.13;;
10851;SDS011;5479;52.046;6.314;2023-03-25T03:15:17;4.33;;;1.90;;
10851;SDS011;5479;52.046;6.314;2023-03-25T03:17:57;5.30;;;2.20;;
10851;SDS011;5479;52.046;6.314;2023-03-25T03:20:36;6.83;;;2.43;;
10851;SDS011;5479;52.046;6.314;2023-03-25T03:23:08;6.50;;;2.37;;
10851;SDS011;5479;52.046;6.314;2023-03-25T03:25:44;5.90;;;2.37;;
10851;SDS011;5479;52.046;6.314;2023-03-25T03:28:17;5.80;;;2.43;;
10851;SDS011;5479;52.046;6.314;2023-03-25T03:30:53;6.23;;;2.20;;
10851;SDS011;5479;52.046;6.314;2023-03-25T03:33:28;6.80;;;2.33;;
10851;SDS011;5479;52.046;6.314;2023-03-25T03:36:05;7.50;;;2.70;;
10851;SDS011;5479;52.046;6.314;2023-03-25T03:38:37;6.10;;;2.63;;
10851;SDS011;5479;52.046;6.314;2023-03-25T03:41:09;6.80;;;2.73;;
10851;SDS011;5479;52.046;6.314;2023-03-25T03:43:40;7.67;;;2.47;;
10851;SDS011;5479;52.046;6.314;2023-03-25T03:46:12;6.17;;;2.70;;
10851;SDS011;5479;52.046;6.314;2023-03-25T03:48:46;6.17;;;2.47;;
10851;SDS011;5479;52.046;6.314;2023-03-25T03:51:20;7.27;;;2.80;;
10851;SDS011;5479;52.046;6.314;2023-03-25T03:53:55;7.23;;;2.90;;
10851;SDS011;5479;52.046;6.314;2023-03-25T03:56:27;9.00;;;2.80;;
10851;SDS011;5479;52.046;6.314;2023-03-25T03:59:02;6.43;;;2.87;;
10851;SDS011;5479;52.046;6.314;2023-03-25T04:01:38;6.67;;;2.67;;
10851;SDS011;5479;52.046;6.314;2023-03-25T04:04:12;7.67;;;2.90;;
10851;SDS011;5479;52.046;6.314;2023-03-25T04:06:43;7.30;;;2.90;;
10851;SDS011;5479;52.046;6.314;2023-03-25T04:09:18;7.77;;;3.00;;
10851;SDS011;5479;52.046;6.314;2023-03-25T04:11:55;7.37;;;3.07;;
10851;SDS011;5479;52.046;6.314;2023-03-25T04:14:27;8.73;;;3.17;;
10851;SDS011;5479;52.046;6.314;2023-03-25T04:16:55;7.93;;;2.80;;
10851;SDS011;5479;52.046;6.314;2023-03-25T04:19:24;7.00;;;3.07;;
10851;SDS011;5479;52.046;6.314;2023-03-25T04:21:53;7.77;;;3.00;;
10851;SDS011;5479;52.046;6.314;2023-03-25T04:24:21;6.83;;;3.07;;
10851;SDS011;5479;52.046;6.314;2023-03-25T04:26:50;7.53;;;2.97;;
10851;SDS011;5479;52.046;6.314;2023-03-25T04:29:19;5.70;;;2.70;;
10851;SDS011;5479;52.046;6.314;2023-03-25T04:31:47;8.50;;;2.77;;
10851;SDS011;5479;52.046;6.314;2023-03-25T04:34:15;7.30;;;3.07;;
10851;SDS011;5479;52.046;6.314;2023-03-25T04:36:45;6.20;;;2.70;;
10851;SDS011;5479;52.046;6.314;2023-03-25T04:39:15;4.93;;;2.73;;
10851;SDS011;5479;52.046;6.314;2023-03-25T04:41:47;8.17;;;3.00;;
10851;SDS011;5479;52.046;6.314;2023-03-25T04:44:16;7.30;;;3.13;;
10851;SDS011;5479;52.046;6.314;2023-03-25T04:46:45;10.33;;;2.93;;
10851;SDS011;5479;52.046;6.314;2023-03-25T04:49:16;7.57;;;3.00;;
10851;SDS011;5479;52.046;6.314;2023-03-25T04:51:46;7.27;;;2.60;;
10851;SDS011;5479;52.046;6.314;2023-03-25T04:54:14;8.03;;;2.57;;
10851;SDS011;5479;52.046;6.314;2023-03-25T04:56:42;7.63;;;2.93;;
10851;SDS011;5479;52.046;6.314;2023-03-25T04:59:12;6.10;;;2.60;;
10851;SDS011;5479;52.046;6.314;2023-03-25T05:01:41;8.23;;;2.60;;
10851;SDS011;5479;52.046;6.314;2023-03-25T05:04:13;9.13;;;2.77;;
10851;SDS011;5479;52.046;6.314;2023-03-25T05:06:43;9.80;;;2.57;;
10851;SDS011;5479;52.046;6.314;2023-03-25T05:09:13;6.70;;;2.83;;
10851;SDS011;5479;52.046;6.314;2023-03-25T05:11:42;8.80;;;3.00;;
10851;SDS011;5479;52.046;6.314;2023-03-25T05:14:11;8.67;;;2.50;;
10851;SDS011;5479;52.046;6.314;2023-03-25T05:16:41;7.13;;;2.40;;
10851;SDS011;5479;52.046;6.314;2023-03-25T05:19:09;10.03;;;2.50;;
10851;SDS011;5479;52.046;6.314;2023-03-25T05:21:39;9.07;;;2.47;;
10851;SDS011;5479;52.046;6.314;2023-03-25T05:24:08;6.43;;;2.43;;
10851;SDS011;5479;52.046;6.314;2023-03-25T05:26:37;8.17;;;2.80;;
10851;SDS011;5479;52.046;6.314;2023-03-25T05:29:07;8.63;;;2.40;;
10851;SDS011;5479;52.046;6.314;2023-03-25T05:31:39;8.77;;;2.47;;
10851;SDS011;5479;52.046;6.314;2023-03-25T05:34:07;8.07;;;2.20;;
10851;SDS011;5479;52.046;6.314;2023-03-25T05:36:35;8.30;;;2.63;;
10851;SDS011;5479;52.046;6.314;2023-03-25T05:39:04;7.77;;;2.20;;
10851;SDS011;5479;52.046;6.314;2023-03-25T05:41:33;8.90;;;2.43;;
10851;SDS011;5479;52.046;6.314;2023-03-25T05:44:04;6.13;;;2.30;;
10851;SDS011;5479;52.046;6.314;2023-03-25T05:46:33;8.30;;;2.60;;
10851;SDS011;5479;52.046;6.314;2023-03-25T05:49:01;5.73;;;2.07;;
10851;SDS011;5479;52.046;6.314;2023-03-25T05:51:31;5.87;;;2.20;;
10851;SDS011;5479;52.046;6.314;2023-03-25T05:54:02;5.93;;;2.30;;
10851;SDS011;5479;52.046;6.314;2023-03-25T05:56:38;6.97;;;2.50;;
10851;SDS011;5479;52.046;6.314;2023-03-25T05:59:07;6.43;;;2.43;;
10851;SDS011;5479;52.046;6.314;2023-03-25T06:01:36;7.17;;;2.23;;
10851;SDS011;5479;52.046;6.314;2023-03-25T06:04:04;11.30;;;2.57;;
10851;SDS011;5479;52.046;6.314;2023-03-25T06:06:35;5.30;;;2.03;;
10851;SDS011;5479;52.046;6.314;2023-03-25T06:09:05;7.77;;;2.40;;
10851;SDS011;5479;52.046;6.314;2023-03-25T06:11:33;5.80;;;2.10;;
10851;SDS011;5479;52.046;6.314;2023-03-25T06:14:04;6.63;;;2.30;;
10851;SDS011;5479;52.046;6.314;2023-03-25T06:16:32;5.77;;;2.33;;
10851;SDS011;5479;52.046;6.314;2023-03-25T06:19:00;6.30;;;2.17;;
10851;SDS011;5479;52.046;6.314;2023-03-25T06:21:29;4.83;;;1.97;;
10851;SDS011;5479;52.046;6.314;2023-03-25T06:23:59;6.47;;;2.23;;
10851;SDS011;5479;52.046;6.314;2023-03-25T06:26:29;5.27;;;2.03;;
10851;SDS011;5479;52.046;6.314;2023-03-25T06:28:57;5.57;;;2.53;;
10851;SDS011;5479;52.046;6.314;2023-03-25T06:31:26;8.27;;;2.50;;
10851;SDS011;5479;52.046;6.314;2023-03-25T06:33:58;7.83;;;2.57;;
10851;SDS011;5479;52.046;6.314;2023-03-25T06:36:26;8.50;;;2.80;;
10851;SDS011;5479;52.046;6.314;2023-03-25T06:38:54;7.13;;;2.60;;
10851;SDS011;5479;52.046;6.314;2023-03-25T06:41:23;7.27;;;2.80;;
10851;SDS011;5479;52.046;6.314;2023-03-25T06:43:52;7.33;;;2.63;;
10851;SDS011;5479;52.046;6.314;2023-03-25T06:46:20;8.87;;;3.23;;
10851;SDS011;5479;52.046;6.314;2023-03-25T06:48:48;7.77;;;3.00;;
10851;SDS011;5479;52.046;6.314;2023-03-25T06:51:16;8.80;;;3.70;;
10851;SDS011;5479;52.046;6.314;2023-03-25T06:53:47;9.97;;;3.77;;
10851;SDS011;5479;52.046;6.314;2023-03-25T06:56:15;9.13;;;3.43;;
10851;SDS011;5479;52.046;6.314;2023-03-25T06:58:43;7.47;;;4.07;;
10851;SDS011;5479;52.046;6.314;2023-03-25T07:01:12;9.43;;;3.50;;
10851;SDS011;5479;52.046;6.314;2023-03-25T07:03:40;11.73;;;4.03;;
10851;SDS011;5479;52.046;6.314;2023-03-25T07:06:09;9.30;;;3.40;;
10851;SDS011;5479;52.046;6.314;2023-03-25T07:08:42;11.43;;;3.70;;
10851;SDS011;5479;52.046;6.314;2023-03-25T07:11:11;9.80;;;3.60;;
10851;SDS011;5479;52.046;6.314;2023-03-25T07:13:40;7.73;;;3.37;;
10851;SDS011;5479;52.046;6.314;2023-03-25T07:16:09;9.77;;;3.50;;
10851;SDS011;5479;52.046;6.314;2023-03-25T07:18:39;8.90;;;3.10;;
10851;SDS011;5479;52.046;6.314;2023-03-25T07:21:07;9.70;;;3.30;;
10851;SDS011;5479;52.046;6.314;2023-03-25T07:23:35;7.43;;;3.27;;
10851;SDS011;5479;52.046;6.314;2023-03-25T07:26:03;10.23;;;3.00;;
10851;SDS011;5479;52.046;6.314;2023-03-25T07:28:31;9.40;;;3.33;;
10851;SDS011;5479;52.046;6.314;2023-03-25T07:30:59;8.53;;;3.20;;
10851;SDS011;5479;52.046;6.314;2023-03-25T07:33:27;11.23;;;2.97;;
10851;SDS011;5479;52.046;6.314;2023-03-25T07:35:57;8.47;;;3.07;;
10851;SDS011;5479;52.046;6.314;2023-03-25T07:38:25;8.27;;;2.80;;
10851;SDS011;5479;52.046;6.314;2023-03-25T07:40:53;9.23;;;3.40;;
10851;SDS011;5479;52.046;6.314;2023-03-25T07:43:21;10.33;;;3.27;;
10851;SDS011;5479;52.046;6.314;2023-03-25T07:45:49;13.50;;;3.07;;
10851;SDS011;5479;52.046;6.314;2023-03-25T07:48:17;9.70;;;3.07;;
10851;SDS011;5479;52.046;6.314;2023-03-25T07:50:45;8.47;;;3.30;;
10851;SDS011;5479;52.046;6.314;2023-03-25T07:53:16;9.70;;;3.47;;
10851;SDS011;5479;52.046;6.314;2023-03-25T07:55:44;8.97;;;3.90;;
10851;SDS011;5479;52.046;6.314;2023-03-25T07:58:12;11.00;;;3.90;;
10851;SDS011;5479;52.046;6.314;2023-03-25T08:00:40;8.57;;;3.87;;
10851;SDS011;5479;52.046;6.314;2023-03-25T08:03:09;7.03;;;3.37;;
10851;SDS011;5479;52.046;6.314;2023-03-25T08:05:37;9.50;;;4.10;;
10851;SDS011;5479;52.046;6.314;2023-03-25T08:08:09;9.77;;;3.90;;
10851;SDS011;5479;52.046;6.314;2023-03-25T08:10:39;11.00;;;3.70;;
10851;SDS011;5479;52.046;6.314;2023-03-25T08:13:09;9.40;;;3.30;;
10851;SDS011;5479;52.046;6.314;2023-03-25T08:15:38;9.30;;;3.30;;
10851;SDS011;5479;52.046;6.314;2023-03-25T08:18:07;11.07;;;3.87;;
10851;SDS011;5479;52.046;6.314;2023-03-25T08:20:35;7.27;;;2.93;;
10851;SDS011;5479;52.046;6.314;2023-03-25T08:23:03;10.90;;;3.17;;
10851;SDS011;5479;52.046;6.314;2023-03-25T08:25:35;10.27;;;3.43;;
10851;SDS011;5479;52.046;6.314;2023-03-25T08:28:05;7.37;;;3.27;;
10851;SDS011;5479;52.046;6.314;2023-03-25T08:30:34;7.87;;;3.27;;
10851;SDS011;5479;52.046;6.314;2023-03-25T08:33:04;8.10;;;3.43;;
10851;SDS011;5479;52.046;6.314;2023-03-25T08:35:33;6.60;;;3.30;;
10851;SDS011;5479;52.046;6.314;2023-03-25T08:38:02;9.87;;;3.00;;
10851;SDS011;5479;52.046;6.314;2023-03-25T08:40:32;11.97;;;3.50;;
10851;SDS011;5479;52.046;6.314;2023-03-25T08:43:02;10.47;;;3.50;;
10851;SDS011;5479;52.046;6.314;2023-03-25T08:45:33;8.63;;;3.73;;
10851;SDS011;5479;52.046;6.314;2023-03-25T08:48:02;8.43;;;3.50;;
10851;SDS011;5479;52.046;6.314;2023-03-25T08:50:32;10.33;;;3.80;;
10851;SDS011;5479;52.046;6.314;2023-03-25T08:53:00;10.03;;;3.20;;
10851;SDS011;5479;52.046;6.314;2023-03-25T08:55:28;8.73;;;3.33;;
10851;SDS011;5479;52.046;6.314;2023-03-25T08:57:56;9.90;;;3.63;;
10851;SDS011;5479;52.046;6.314;2023-03-25T09:00:28;11.57;;;3.97;;
10851;SDS011;5479;52.046;6.314;2023-03-25T09:02:57;11.87;;;4.10;;
10851;SDS011;5479;52.046;6.314;2023-03-25T09:05:26;11.13;;;4.27;;
10851;SDS011;5479;52.046;6.314;2023-03-25T09:07:54;13.63;;;4.17;;
10851;SDS011;5479;52.046;6.314;2023-03-25T09:10:22;12.83;;;4.10;;
10851;SDS011;5479;52.046;6.314;2023-03-25T09:12:50;10.17;;;3.50;;
10851;SDS011;5479;52.046;6.314;2023-03-25T09:15:18;9.37;;;3.40;;
10851;SDS011;5479;52.046;6.314;2023-03-25T09:17:46;9.23;;;3.40;;
10851;SDS011;5479;52.046;6.314;2023-03-25T09:20:16;10.27;;;3.73;;
10851;SDS011;5479;52.046;6.314;2023-03-25T09:22:44;12.70;;;3.47;;
10851;SDS011;5479;52.046;6.314;2023-03-25T09:25:12;8.97;;;3.27;;
10851;SDS011;5479;52.046;6.314;2023-03-25T09:27:40;10.07;;;3.13;;
10851;SDS011;5479;52.046;6.314;2023-03-25T09:30:08;7.70;;;3.07;;
10851;SDS011;5479;52.046;6.314;2023-03-25T09:32:37;10.97;;;3.20;;
10851;SDS011;5479;52.046;6.314;2023-03-25T09:35:06;9.73;;;3.53;;
10851;SDS011;5479;52.046;6.314;2023-03-25T09:37:36;10.13;;;3.43;;
10851;SDS011;5479;52.046;6.314;2023-03-25T09:40:05;11.07;;;3.37;;
10851;SDS011;5479;52.046;6.314;2023-03-25T09:42:39;10.17;;;3.60;;
10851;SDS011;5479;52.046;6.314;2023-03-25T09:45:23;9.70;;;3.43;;
10851;SDS011;5479;52.046;6.314;2023-03-25T09:47:58;11.13;;;3.37;;
10851;SDS011;5479;52.046;6.314;2023-03-25T09:50:29;12.93;;;3.60;;
10851;SDS011;5479;52.046;6.314;2023-03-25T09:53:04;11.17;;;3.40;;
10851;SDS011;5479;52.046;6.314;2023-03-25T09:55:39;13.33;;;3.73;;
10851;SDS011;5479;52.046;6.314;2023-03-25T09:58:26;9.83;;;3.47;;
10851;SDS011;5479;52.046;6.314;2023-03-25T10:01:03;11.37;;;3.57;;
10851;SDS011;5479;52.046;6.314;2023-03-25T10:03:42;11.70;;;3.67;;
10851;SDS011;5479;52.046;6.314;2023-03-25T10:06:21;9.83;;;3.50;;
10851;SDS011;5479;52.046;6.314;2023-03-25T10:08:58;10.43;;;2.80;;
10851;SDS011;5479;52.046;6.314;2023-03-25T10:11:36;8.00;;;2.43;;
10851;SDS011;5479;52.046;6.314;2023-03-25T10:14:15;7.40;;;2.57;;
10851;SDS011;5479;52.046;6.314;2023-03-25T10:16:53;8.77;;;2.60;;
10851;SDS011;5479;52.046;6.314;2023-03-25T10:19:35;14.70;;;3.83;;
10851;SDS011;5479;52.046;6.314;2023-03-25T10:22:16;8.93;;;3.67;;
10851;SDS011;5479;52.046;6.314;2023-03-25T10:24:50;10.50;;;3.63;;
10851;SDS011;5479;52.046;6.314;2023-03-25T10:27:24;12.37;;;3.87;;
10851;SDS011;5479;52.046;6.314;2023-03-25T10:29:59;16.77;;;4.20;;
10851;SDS011;5479;52.046;6.314;2023-03-25T10:32:37;9.37;;;3.53;;
10851;SDS011;5479;52.046;6.314;2023-03-25T10:35:08;9.90;;;3.40;;
10851;SDS011;5479;52.046;6.314;2023-03-25T10:37:39;9.03;;;3.20;;
10851;SDS011;5479;52.046;6.314;2023-03-25T10:40:21;9.23;;;3.07;;
10851;SDS011;5479;52.046;6.314;2023-03-25T10:43:02;10.43;;;3.17;;
10851;SDS011;5479;52.046;6.314;2023-03-25T10:45:44;9.97;;;3.67;;
10851;SDS011;5479;52.046;6.314;2023-03-25T10:48:15;9.80;;;2.97;;
10851;SDS011;5479;52.046;6.314;2023-03-25T10:50:47;10.13;;;3.30;;
10851;SDS011;5479;52.046;6.314;2023-03-25T10:53:18;9.40;;;3.27;;
10851;SDS011;5479;52.046;6.314;2023-03-25T10:55:52;10.87;;;3.37;;
10851;SDS011;5479;52.046;6.314;2023-03-25T10:58:25;10.83;;;3.60;;
10851;SDS011;5479;52.046;6.314;2023-03-25T11:00:53;10.77;;;3.23;;
10851;SDS011;5479;52.046;6.314;2023-03-25T11:03:23;8.87;;;3.03;;
10851;SDS011;5479;52.046;6.314;2023-03-25T11:05:56;13.97;;;3.67;;
10851;SDS011;5479;52.046;6.314;2023-03-25T11:08:24;13.03;;;3.67;;
10851;SDS011;5479;52.046;6.314;2023-03-25T11:10:54;11.20;;;3.33;;
10851;SDS011;5479;52.046;6.314;2023-03-25T11:13:26;11.50;;;4.17;;
10851;SDS011;5479;52.046;6.314;2023-03-25T11:15:56;14.47;;;3.90;;
10851;SDS011;5479;52.046;6.314;2023-03-25T11:18:27;9.37;;;3.13;;
10851;SDS011;5479;52.046;6.314;2023-03-25T11:20:59;13.13;;;3.27;;
10851;SDS011;5479;52.046;6.314;2023-03-25T11:23:31;7.60;;;2.70;;
10851;SDS011;5479;52.046;6.314;2023-03-25T11:26:04;7.60;;;2.50;;
10851;SDS011;5479;52.046;6.314;2023-03-25T11:28:35;8.27;;;2.87;;
10851;SDS011;5479;52.046;6.314;2023-03-25T11:31:06;11.80;;;2.83;;
10851;SDS011;5479;52.046;6.314;2023-03-25T11:33:43;10.10;;;2.60;;
10851;SDS011;5479;52.046;6.314;2023-03-25T11:36:20;9.90;;;2.93;;
10851;SDS011;5479;52.046;6.314;2023-03-25T11:38:53;16.07;;;4.03;;
10851;SDS011;5479;52.046;6.314;2023-03-25T11:41:29;12.53;;;3.70;;
10851;SDS011;5479;52.046;6.314;2023-03-25T11:43:59;15.20;;;3.90;;
10851;SDS011;5479;52.046;6.314;2023-03-25T11:46:28;11.93;;;3.00;;
10851;SDS011;5479;52.046;6.314;2023-03-25T11:48:57;10.57;;;3.33;;
10851;SDS011;5479;52.046;6.314;2023-03-25T11:51:37;12.30;;;3.07;;
10851;SDS011;5479;52.046;6.314;2023-03-25T11:54:06;16.90;;;4.13;;
10851;SDS011;5479;52.046;6.314;2023-03-25T11:56:39;13.60;;;3.60;;
10851;SDS011;5479;52.046;6.314;2023-03-25T11:59:16;10.80;;;2.97;;
10851;SDS011;5479;52.046;6.314;2023-03-25T12:01:49;12.33;;;3.07;;
10851;SDS011;5479;52.046;6.314;2023-03-25T12:04:20;16.20;;;3.77;;
10851;SDS011;5479;52.046;6.314;2023-03-25T12:06:53;12.57;;;3.93;;
10851;SDS011;5479;52.046;6.314;2023-03-25T12:09:24;14.50;;;3.57;;
10851;SDS011;5479;52.046;6.314;2023-03-25T12:14:54;16.33;;;4.10;;
10851;SDS011;5479;52.046;6.314;2023-03-25T12:17:36;20.67;;;3.43;;
10851;SDS011;5479;52.046;6.314;2023-03-25T12:20:14;13.17;;;3.50;;
10851;SDS011;5479;52.046;6.314;2023-03-25T12:22:53;13.50;;;3.93;;
10851;SDS011;5479;52.046;6.314;2023-03-25T12:25:29;10.93;;;2.60;;
10851;SDS011;5479;52.046;6.314;2023-03-25T12:28:16;8.20;;;2.43;;
10851;SDS011;5479;52.046;6.314;2023-03-25T12:30:58;10.83;;;2.90;;
10851;SDS011;5479;52.046;6.314;2023-03-25T12:33:44;9.10;;;2.23;;
10851;SDS011;5479;52.046;6.314;2023-03-25T12:36:27;11.50;;;3.20;;
10851;SDS011;5479;52.046;6.314;2023-03-25T12:39:09;9.67;;;2.60;;
10851;SDS011;5479;52.046;6.314;2023-03-25T12:41:52;10.13;;;3.10;;
10851;SDS011;5479;52.046;6.314;2023-03-25T12:44:36;8.73;;;2.37;;
10851;SDS011;5479;52.046;6.314;2023-03-25T12:47:20;11.67;;;3.20;;
10851;SDS011;5479;52.046;6.314;2023-03-25T12:49:56;10.27;;;2.70;;
10851;SDS011;5479;52.046;6.314;2023-03-25T12:52:34;9.63;;;2.60;;
10851;SDS011;5479;52.046;6.314;2023-03-25T12:55:15;16.27;;;3.03;;
10851;SDS011;5479;52.046;6.314;2023-03-25T12:57:55;11.23;;;3.07;;
10851;SDS011;5479;52.046;6.314;2023-03-25T13:00:41;12.20;;;3.03;;
10851;SDS011;5479;52.046;6.314;2023-03-25T13:06:21;7.47;;;2.10;;
10851;SDS011;5479;52.046;6.314;2023-03-25T13:08:57;7.60;;;2.40;;
10851;SDS011;5479;52.046;6.314;2023-03-25T13:11:31;7.33;;;1.70;;
10851;SDS011;5479;52.046;6.314;2023-03-25T13:14:05;6.50;;;2.00;;
10851;SDS011;5479;52.046;6.314;2023-03-25T13:16:40;3.97;;;1.50;;
10851;SDS011;5479;52.046;6.314;2023-03-25T13:19:12;6.53;;;1.83;;
10851;SDS011;5479;52.046;6.314;2023-03-25T13:21:44;4.17;;;1.70;;
10851;SDS011;5479;52.046;6.314;2023-03-25T13:24:18;4.27;;;1.43;;
10851;SDS011;5479;52.046;6.314;2023-03-25T13:26:50;5.47;;;1.23;;
10851;SDS011;5479;52.046;6.314;2023-03-25T13:29:23;4.83;;;1.30;;
10851;SDS011;5479;52.046;6.314;2023-03-25T13:31:56;4.73;;;1.60;;
10851;SDS011;5479;52.046;6.314;2023-03-25T13:34:29;6.63;;;1.83;;
10851;SDS011;5479;52.046;6.314;2023-03-25T13:37:03;10.57;;;2.27;;
10851;SDS011;5479;52.046;6.314;2023-03-25T13:39:45;7.97;;;2.20;;
10851;SDS011;5479;52.046;6.314;2023-03-25T13:42:20;8.67;;;2.20;;
10851;SDS011;5479;52.046;6.314;2023-03-25T13:44:52;11.40;;;2.87;;
10851;SDS011;5479;52.046;6.314;2023-03-25T13:47:26;9.80;;;2.53;;
10851;SDS011;5479;52.046;6.314;2023-03-25T13:49:59;8.97;;;2.60;;
10851;SDS011;5479;52.046;6.314;2023-03-25T13:52:30;10.90;;;2.90;;
10851;SDS011;5479;52.046;6.314;2023-03-25T13:55:05;8.60;;;2.77;;
10851;SDS011;5479;52.046;6.314;2023-03-25T13:57:44;9.67;;;3.07;;
10851;SDS011;5479;52.046;6.314;2023-03-25T14:00:37;13.50;;;3.87;;
10851;SDS011;5479;52.046;6.314;2023-03-25T14:03:43;10.73;;;3.43;;
10851;SDS011;5479;52.046;6.314;2023-03-25T14:12:44;11.30;;;3.33;;
10851;SDS011;5479;52.046;6.314;2023-03-25T14:15:18;9.37;;;2.70;;
10851;SDS011;5479;52.046;6.314;2023-03-25T14:17:49;11.87;;;3.40;;
10851;SDS011;5479;52.046;6.314;2023-03-25T14:20:21;9.17;;;2.57;;
10851;SDS011;5479;52.046;6.314;2023-03-25T14:22:54;11.83;;;2.70;;
10851;SDS011;5479;52.046;6.314;2023-03-25T14:25:27;8.43;;;2.53;;
10851;SDS011;5479;52.046;6.314;2023-03-25T14:27:59;11.40;;;3.30;;
10851;SDS011;5479;52.046;6.314;2023-03-25T14:30:28;12.90;;;3.10;;
10851;SDS011;5479;52.046;6.314;2023-03-25T14:32:59;11.23;;;3.47;;
10851;SDS011;5479;52.046;6.314;2023-03-25T14:35:46;8.87;;;2.93;;
10851;SDS011;5479;52.046;6.314;2023-03-25T14:44:32;5.80;;;1.83;;
10851;SDS011;5479;52.046;6.314;2023-03-25T14:50:19;6.07;;;2.00;;
10851;SDS011;5479;52.046;6.314;2023-03-25T14:53:00;7.77;;;2.40;;
10851;SDS011;5479;52.046;6.314;2023-03-25T14:55:31;7.73;;;2.53;;
10851;SDS011;5479;52.046;6.314;2023-03-25T14:58:05;6.27;;;2.20;;
10851;SDS011;5479;52.046;6.314;2023-03-25T15:00:44;5.23;;;1.63;;
10851;SDS011;5479;52.046;6.314;2023-03-25T15:03:19;7.13;;;1.40;;
10851;SDS011;5479;52.046;6.314;2023-03-25T15:05:53;4.00;;;1.33;;
10851;SDS011;5479;52.046;6.314;2023-03-25T15:08:23;6.20;;;1.63;;
10851;SDS011;5479;52.046;6.314;2023-03-25T15:11:01;5.97;;;1.47;;
10851;SDS011;5479;52.046;6.314;2023-03-25T15:13:32;6.27;;;1.53;;
10851;SDS011;5479;52.046;6.314;2023-03-25T15:16:03;4.57;;;1.57;;
10851;SDS011;5479;52.046;6.314;2023-03-25T15:21:31;7.03;;;1.80;;
10851;SDS011;5479;52.046;6.314;2023-03-25T15:24:21;5.93;;;2.27;;
10851;SDS011;5479;52.046;6.314;2023-03-25T15:26:53;9.57;;;2.17;;
10851;SDS011;5479;52.046;6.314;2023-03-25T15:29:30;7.60;;;1.90;;
10851;SDS011;5479;52.046;6.314;2023-03-25T15:32:15;6.30;;;2.17;;
10851;SDS011;5479;52.046;6.314;2023-03-25T15:35:09;10.57;;;2.80;;
10851;SDS011;5479;52.046;6.314;2023-03-25T15:40:56;11.97;;;2.77;;
10851;SDS011;5479;52.046;6.314;2023-03-25T15:43:39;8.93;;;2.47;;
10851;SDS011;5479;52.046;6.314;2023-03-25T15:49:26;7.27;;;2.53;;
10851;SDS011;5479;52.046;6.314;2023-03-25T15:52:17;8.43;;;2.50;;
10851;SDS011;5479;52.046;6.314;2023-03-25T15:55:01;6.90;;;2.37;;
10851;SDS011;5479;52.046;6.314;2023-03-25T15:57:36;8.73;;;2.50;;
10851;SDS011;5479;52.046;6.314;2023-03-25T16:00:12;6.50;;;2.27;;
10851;SDS011;5479;52.046;6.314;2023-03-25T16:02:44;9.53;;;2.50;;